sensor_id;sensor_type;location;lat;lon;timestamp;temperature;humidity
73137;DHT22;67767;45.636;11.756;2023-06-26T00:00:14;25.10;68.10
73137;DHT22;67767;45.636;11.756;2023-06-26T00:02:40;24.90;68.20
73137;DHT22;67767;45.636;11.756;2023-06-26T00:05:06;24.90;69.30
73137;DHT22;67767;45.636;11.756;2023-06-26T00:07:32;24.90;68.90
73137;DHT22;67767;45.636;11.756;2023-06-26T00:10:00;24.90;68.40
73137;DHT22;67767;45.636;11.756;2023-06-26T00:12:26;25.00;68.60
73137;DHT22;67767;45.636;11.756;2023-06-26T00:14:52;25.00;68.50
73137;DHT22;67767;45.636;11.756;2023-06-26T00:17:18;24.90;69.00
73137;DHT22;67767;45.636;11.756;2023-06-26T00:19:44;24.90;69.40
73137;DHT22;67767;45.636;11.756;2023-06-26T00:22:11;24.90;70.50
73137;DHT22;67767;45.636;11.756;2023-06-26T00:24:36;24.80;69.60
73137;DHT22;67767;45.636;11.756;2023-06-26T00:27:02;24.90;70.20
73137;DHT22;67767;45.636;11.756;2023-06-26T00:29:28;24.90;70.20
73137;DHT22;67767;45.636;11.756;2023-06-26T00:31:53;24.80;71.00
73137;DHT22;67767;45.636;11.756;2023-06-26T00:34:19;24.70;71.10
73137;DHT22;67767;45.636;11.756;2023-06-26T00:36:45;24.80;70.50
73137;DHT22;67767;45.636;11.756;2023-06-26T00:39:11;24.70;71.20
73137;DHT22;67767;45.636;11.756;2023-06-26T00:41:39;24.70;71.20
73137;DHT22;67767;45.636;11.756;2023-06-26T00:44:05;24.70;71.20
73137;DHT22;67767;45.636;11.756;2023-06-26T00:46:32;24.60;71.30
73137;DHT22;67767;45.636;11.756;2023-06-26T00:49:03;24.50;71.60
73137;DHT22;67767;45.636;11.756;2023-06-26T00:51:30;24.50;71.60
73137;DHT22;67767;45.636;11.756;2023-06-26T00:53:56;24.50;71.50
73137;DHT22;67767;45.636;11.756;2023-06-26T00:56:23;24.60;71.60
73137;DHT22;67767;45.636;11.756;2023-06-26T00:58:49;24.50;71.50
73137;DHT22;67767;45.636;11.756;2023-06-26T01:01:15;24.60;71.80
73137;DHT22;67767;45.636;11.756;2023-06-26T01:03:44;24.50;71.40
73137;DHT22;67767;45.636;11.756;2023-06-26T01:06:13;24.60;71.30
73137;DHT22;67767;45.636;11.756;2023-06-26T01:08:40;24.60;71.10
73137;DHT22;67767;45.636;11.756;2023-06-26T01:11:07;24.60;71.30
73137;DHT22;67767;45.636;11.756;2023-06-26T01:13:33;24.60;71.50
73137;DHT22;67767;45.636;11.756;2023-06-26T01:15:59;24.50;71.20
73137;DHT22;67767;45.636;11.756;2023-06-26T01:18:26;24.60;71.30
73137;DHT22;67767;45.636;11.756;2023-06-26T01:20:52;24.60;71.10
73137;DHT22;67767;45.636;11.756;2023-06-26T01:26:19;24.70;71.30
73137;DHT22;67767;45.636;11.756;2023-06-26T01:28:45;24.60;70.60
73137;DHT22;67767;45.636;11.756;2023-06-26T01:31:12;24.60;71.50
73137;DHT22;67767;45.636;11.756;2023-06-26T01:33:40;24.50;71.40
73137;DHT22;67767;45.636;11.756;2023-06-26T01:36:06;24.40;71.60
73137;DHT22;67767;45.636;11.756;2023-06-26T01:38:33;24.50;71.00
73137;DHT22;67767;45.636;11.756;2023-06-26T01:41:00;24.40;71.50
73137;DHT22;67767;45.636;11.756;2023-06-26T01:46:11;24.40;72.10
73137;DHT22;67767;45.636;11.756;2023-06-26T01:48:46;24.40;72.10
73137;DHT22;67767;45.636;11.756;2023-06-26T01:51:17;24.30;72.10
73137;DHT22;67767;45.636;11.756;2023-06-26T01:53:52;24.30;72.10
73137;DHT22;67767;45.636;11.756;2023-06-26T01:56:19;24.30;72.50
73137;DHT22;67767;45.636;11.756;2023-06-26T01:58:46;24.20;72.80
73137;DHT22;67767;45.636;11.756;2023-06-26T02:01:15;24.10;73.00
73137;DHT22;67767;45.636;11.756;2023-06-26T02:03:41;24.00;72.80
73137;DHT22;67767;45.636;11.756;2023-06-26T02:06:07;24.00;72.80
73137;DHT22;67767;45.636;11.756;2023-06-26T02:08:33;23.90;73.00
73137;DHT22;67767;45.636;11.756;2023-06-26T02:10:58;23.90;73.00
73137;DHT22;67767;45.636;11.756;2023-06-26T02:13:24;23.80;72.70
73137;DHT22;67767;45.636;11.756;2023-06-26T02:15:49;23.90;72.50
73137;DHT22;67767;45.636;11.756;2023-06-26T02:18:15;23.90;72.50
73137;DHT22;67767;45.636;11.756;2023-06-26T02:20:41;23.90;72.30
73137;DHT22;67767;45.636;11.756;2023-06-26T02:23:06;24.00;72.10
73137;DHT22;67767;45.636;11.756;2023-06-26T02:25:32;24.00;72.00
73137;DHT22;67767;45.636;11.756;2023-06-26T02:27:58;24.00;72.00
73137;DHT22;67767;45.636;11.756;2023-06-26T02:30:23;23.90;72.20
73137;DHT22;67767;45.636;11.756;2023-06-26T02:32:49;23.90;72.20
73137;DHT22;67767;45.636;11.756;2023-06-26T02:35:15;23.80;71.90
73137;DHT22;67767;45.636;11.756;2023-06-26T02:37:40;23.80;72.10
73137;DHT22;67767;45.636;11.756;2023-06-26T02:40:06;23.80;72.10
73137;DHT22;67767;45.636;11.756;2023-06-26T02:42:34;23.70;72.20
73137;DHT22;67767;45.636;11.756;2023-06-26T02:45:00;23.80;72.10
73137;DHT22;67767;45.636;11.756;2023-06-26T02:47:25;23.80;72.10
73137;DHT22;67767;45.636;11.756;2023-06-26T02:49:51;23.80;71.90
73137;DHT22;67767;45.636;11.756;2023-06-26T02:52:17;23.80;72.00
73137;DHT22;67767;45.636;11.756;2023-06-26T02:54:42;23.70;71.90
73137;DHT22;67767;45.636;11.756;2023-06-26T02:57:08;23.80;72.00
73137;DHT22;67767;45.636;11.756;2023-06-26T02:59:34;23.80;71.70
73137;DHT22;67767;45.636;11.756;2023-06-26T03:02:00;23.80;72.00
73137;DHT22;67767;45.636;11.756;2023-06-26T03:04:25;23.80;71.90
73137;DHT22;67767;45.636;11.756;2023-06-26T03:06:51;23.60;72.10
73137;DHT22;67767;45.636;11.756;2023-06-26T03:09:16;23.60;72.00
73137;DHT22;67767;45.636;11.756;2023-06-26T03:11:43;23.50;72.00
73137;DHT22;67767;45.636;11.756;2023-06-26T03:14:09;23.60;71.90
73137;DHT22;67767;45.636;11.756;2023-06-26T03:16:34;23.60;71.80
73137;DHT22;67767;45.636;11.756;2023-06-26T03:19:00;23.60;72.20
73137;DHT22;67767;45.636;11.756;2023-06-26T03:21:25;23.60;72.10
73137;DHT22;67767;45.636;11.756;2023-06-26T03:23:51;23.60;71.90
73137;DHT22;67767;45.636;11.756;2023-06-26T03:26:17;23.50;72.10
73137;DHT22;67767;45.636;11.756;2023-06-26T03:28:42;23.50;72.30
73137;DHT22;67767;45.636;11.756;2023-06-26T03:31:08;23.50;72.30
73137;DHT22;67767;45.636;11.756;2023-06-26T03:33:34;23.40;72.30
73137;DHT22;67767;45.636;11.756;2023-06-26T03:35:59;23.40;72.20
73137;DHT22;67767;45.636;11.756;2023-06-26T03:38:25;23.50;72.30
73137;DHT22;67767;45.636;11.756;2023-06-26T03:40:51;23.50;72.30
73137;DHT22;67767;45.636;11.756;2023-06-26T03:43:17;23.40;72.10
73137;DHT22;67767;45.636;11.756;2023-06-26T03:45:43;23.50;72.30
73137;DHT22;67767;45.636;11.756;2023-06-26T03:48:08;23.50;72.10
73137;DHT22;67767;45.636;11.756;2023-06-26T03:50:34;23.60;71.90
73137;DHT22;67767;45.636;11.756;2023-06-26T03:53:00;23.70;71.60
73137;DHT22;67767;45.636;11.756;2023-06-26T03:55:25;23.70;71.60
73137;DHT22;67767;45.636;11.756;2023-06-26T03:57:51;23.70;71.60
73137;DHT22;67767;45.636;11.756;2023-06-26T04:00:17;23.80;71.50
73137;DHT22;67767;45.636;11.756;2023-06-26T04:02:43;23.80;71.50
73137;DHT22;67767;45.636;11.756;2023-06-26T04:05:08;23.90;71.50
73137;DHT22;67767;45.636;11.756;2023-06-26T04:07:34;23.80;71.60
73137;DHT22;67767;45.636;11.756;2023-06-26T04:10:01;23.80;71.40
73137;DHT22;67767;45.636;11.756;2023-06-26T04:12:27;23.90;71.40
73137;DHT22;67767;45.636;11.756;2023-06-26T04:14:52;23.90;71.20
73137;DHT22;67767;45.636;11.756;2023-06-26T04:17:18;24.00;71.00
73137;DHT22;67767;45.636;11.756;2023-06-26T04:19:44;24.00;70.80
73137;DHT22;67767;45.636;11.756;2023-06-26T04:22:09;24.10;70.80
73137;DHT22;67767;45.636;11.756;2023-06-26T04:24:35;24.10;71.10
73137;DHT22;67767;45.636;11.756;2023-06-26T04:27:01;24.20;70.70
73137;DHT22;67767;45.636;11.756;2023-06-26T04:29:27;24.20;69.70
73137;DHT22;67767;45.636;11.756;2023-06-26T04:31:53;24.20;71.10
73137;DHT22;67767;45.636;11.756;2023-06-26T04:34:26;24.30;71.00
73137;DHT22;67767;45.636;11.756;2023-06-26T04:36:52;24.30;70.20
73137;DHT22;67767;45.636;11.756;2023-06-26T04:39:18;24.40;70.50
73137;DHT22;67767;45.636;11.756;2023-06-26T04:41:46;24.40;70.70
73137;DHT22;67767;45.636;11.756;2023-06-26T04:44:12;24.40;70.90
73137;DHT22;67767;45.636;11.756;2023-06-26T04:46:38;24.40;71.00
73137;DHT22;67767;45.636;11.756;2023-06-26T04:49:10;24.50;71.10
73137;DHT22;67767;45.636;11.756;2023-06-26T04:51:36;24.60;71.10
73137;DHT22;67767;45.636;11.756;2023-06-26T04:54:08;24.60;70.60
73137;DHT22;67767;45.636;11.756;2023-06-26T04:56:34;24.80;70.30
73137;DHT22;67767;45.636;11.756;2023-06-26T04:59:00;24.90;70.30
73137;DHT22;67767;45.636;11.756;2023-06-26T05:01:26;24.80;71.20
73137;DHT22;67767;45.636;11.756;2023-06-26T05:03:58;24.80;71.50
73137;DHT22;67767;45.636;11.756;2023-06-26T05:06:24;24.80;71.10
73137;DHT22;67767;45.636;11.756;2023-06-26T05:08:49;24.80;70.50
73137;DHT22;67767;45.636;11.756;2023-06-26T05:11:15;24.80;70.00
73137;DHT22;67767;45.636;11.756;2023-06-26T05:13:41;25.00;69.90
73137;DHT22;67767;45.636;11.756;2023-06-26T05:16:07;25.10;69.60
73137;DHT22;67767;45.636;11.756;2023-06-26T05:18:34;24.90;69.90
73137;DHT22;67767;45.636;11.756;2023-06-26T05:21:00;25.00;68.50
73137;DHT22;67767;45.636;11.756;2023-06-26T05:23:27;25.10;69.00
73137;DHT22;67767;45.636;11.756;2023-06-26T05:25:56;25.10;69.00
73137;DHT22;67767;45.636;11.756;2023-06-26T05:28:25;25.30;69.80
73137;DHT22;67767;45.636;11.756;2023-06-26T05:30:53;25.40;69.00
73137;DHT22;67767;45.636;11.756;2023-06-26T05:33:22;25.50;68.90
73137;DHT22;67767;45.636;11.756;2023-06-26T05:35:49;25.70;67.70
73137;DHT22;67767;45.636;11.756;2023-06-26T05:38:17;25.50;68.30
73137;DHT22;67767;45.636;11.756;2023-06-26T05:40:43;25.50;68.70
73137;DHT22;67767;45.636;11.756;2023-06-26T05:43:09;25.60;68.20
73137;DHT22;67767;45.636;11.756;2023-06-26T05:45:35;25.70;68.50
73137;DHT22;67767;45.636;11.756;2023-06-26T05:48:00;25.90;68.00
73137;DHT22;67767;45.636;11.756;2023-06-26T05:50:27;26.10;67.80
73137;DHT22;67767;45.636;11.756;2023-06-26T05:52:53;26.20;66.90
73137;DHT22;67767;45.636;11.756;2023-06-26T05:55:20;26.40;65.00
73137;DHT22;67767;45.636;11.756;2023-06-26T05:57:46;26.60;64.70
73137;DHT22;67767;45.636;11.756;2023-06-26T06:00:13;26.60;65.70
73137;DHT22;67767;45.636;11.756;2023-06-26T06:02:39;26.80;64.90
73137;DHT22;67767;45.636;11.756;2023-06-26T06:05:06;26.90;64.10
73137;DHT22;67767;45.636;11.756;2023-06-26T06:07:33;26.70;63.80
73137;DHT22;67767;45.636;11.756;2023-06-26T06:10:00;27.00;64.60
73137;DHT22;67767;45.636;11.756;2023-06-26T06:12:26;27.00;65.80
73137;DHT22;67767;45.636;11.756;2023-06-26T06:14:52;27.20;64.00
73137;DHT22;67767;45.636;11.756;2023-06-26T06:17:18;27.20;59.30
73137;DHT22;67767;45.636;11.756;2023-06-26T06:19:45;27.30;58.50
73137;DHT22;67767;45.636;11.756;2023-06-26T06:22:11;27.50;60.80
73137;DHT22;67767;45.636;11.756;2023-06-26T06:24:37;27.60;58.30
73137;DHT22;67767;45.636;11.756;2023-06-26T06:27:02;27.70;59.40
73137;DHT22;67767;45.636;11.756;2023-06-26T06:29:28;28.00;56.30
73137;DHT22;67767;45.636;11.756;2023-06-26T06:31:54;27.90;55.80
73137;DHT22;67767;45.636;11.756;2023-06-26T06:34:20;28.00;56.30
73137;DHT22;67767;45.636;11.756;2023-06-26T06:36:46;27.90;57.00
73137;DHT22;67767;45.636;11.756;2023-06-26T06:39:11;28.20;56.00
73137;DHT22;67767;45.636;11.756;2023-06-26T06:41:37;28.30;56.60
73137;DHT22;67767;45.636;11.756;2023-06-26T06:44:03;28.10;56.80
73137;DHT22;67767;45.636;11.756;2023-06-26T06:46:29;28.40;56.50
73137;DHT22;67767;45.636;11.756;2023-06-26T06:48:55;28.50;56.70
73137;DHT22;67767;45.636;11.756;2023-06-26T06:51:22;28.50;57.20
73137;DHT22;67767;45.636;11.756;2023-06-26T06:53:48;28.40;57.00
73137;DHT22;67767;45.636;11.756;2023-06-26T06:56:13;28.30;56.30
73137;DHT22;67767;45.636;11.756;2023-06-26T06:58:39;28.30;56.40
73137;DHT22;67767;45.636;11.756;2023-06-26T07:01:09;28.40;57.20
73137;DHT22;67767;45.636;11.756;2023-06-26T07:03:35;28.50;56.60
73137;DHT22;67767;45.636;11.756;2023-06-26T07:06:01;28.70;57.00
73137;DHT22;67767;45.636;11.756;2023-06-26T07:08:27;28.70;56.40
73137;DHT22;67767;45.636;11.756;2023-06-26T07:10:52;28.70;54.70
73137;DHT22;67767;45.636;11.756;2023-06-26T07:13:18;28.80;54.40
73137;DHT22;67767;45.636;11.756;2023-06-26T07:15:45;29.10;54.60
73137;DHT22;67767;45.636;11.756;2023-06-26T07:18:11;29.30;52.50
73137;DHT22;67767;45.636;11.756;2023-06-26T07:20:36;29.20;52.50
73137;DHT22;67767;45.636;11.756;2023-06-26T07:23:02;29.40;52.90
73137;DHT22;67767;45.636;11.756;2023-06-26T07:25:28;29.20;53.10
73137;DHT22;67767;45.636;11.756;2023-06-26T07:27:53;29.30;53.10
73137;DHT22;67767;45.636;11.756;2023-06-26T07:30:19;29.60;53.10
73137;DHT22;67767;45.636;11.756;2023-06-26T07:32:45;29.80;52.30
73137;DHT22;67767;45.636;11.756;2023-06-26T07:35:10;29.60;51.90
73137;DHT22;67767;45.636;11.756;2023-06-26T07:37:36;29.50;51.90
73137;DHT22;67767;45.636;11.756;2023-06-26T07:40:02;29.50;52.10
73137;DHT22;67767;45.636;11.756;2023-06-26T07:42:28;29.70;53.40
73137;DHT22;67767;45.636;11.756;2023-06-26T07:44:54;29.80;52.20
73137;DHT22;67767;45.636;11.756;2023-06-26T07:47:20;29.90;52.20
73137;DHT22;67767;45.636;11.756;2023-06-26T07:49:45;30.20;50.80
73137;DHT22;67767;45.636;11.756;2023-06-26T07:52:11;30.20;50.00
73137;DHT22;67767;45.636;11.756;2023-06-26T07:54:37;30.30;49.90
73137;DHT22;67767;45.636;11.756;2023-06-26T07:57:04;30.40;49.80
73137;DHT22;67767;45.636;11.756;2023-06-26T07:59:32;30.50;50.60
73137;DHT22;67767;45.636;11.756;2023-06-26T08:01:59;30.50;48.50
73137;DHT22;67767;45.636;11.756;2023-06-26T08:04:28;30.40;48.10
73137;DHT22;67767;45.636;11.756;2023-06-26T08:06:57;30.60;48.00
73137;DHT22;67767;45.636;11.756;2023-06-26T08:09:25;30.60;47.90
73137;DHT22;67767;45.636;11.756;2023-06-26T08:11:52;30.50;48.00
73137;DHT22;67767;45.636;11.756;2023-06-26T08:14:18;30.30;48.30
73137;DHT22;67767;45.636;11.756;2023-06-26T08:16:44;30.50;48.40
73137;DHT22;67767;45.636;11.756;2023-06-26T08:19:11;30.50;49.00
73137;DHT22;67767;45.636;11.756;2023-06-26T08:21:37;30.60;47.90
73137;DHT22;67767;45.636;11.756;2023-06-26T08:24:03;30.50;48.60
73137;DHT22;67767;45.636;11.756;2023-06-26T08:26:29;30.60;48.10
73137;DHT22;67767;45.636;11.756;2023-06-26T08:28:54;30.70;48.30
73137;DHT22;67767;45.636;11.756;2023-06-26T08:31:20;30.90;47.70
73137;DHT22;67767;45.636;11.756;2023-06-26T08:33:46;31.00;47.70
73137;DHT22;67767;45.636;11.756;2023-06-26T08:36:12;31.10;46.90
73137;DHT22;67767;45.636;11.756;2023-06-26T08:38:38;31.00;48.30
73137;DHT22;67767;45.636;11.756;2023-06-26T08:41:09;31.00;46.90
73137;DHT22;67767;45.636;11.756;2023-06-26T08:43:35;30.90;46.90
73137;DHT22;67767;45.636;11.756;2023-06-26T08:46:02;30.70;46.40
73137;DHT22;67767;45.636;11.756;2023-06-26T08:48:31;30.40;47.60
73137;DHT22;67767;45.636;11.756;2023-06-26T08:51:01;30.50;49.70
73137;DHT22;67767;45.636;11.756;2023-06-26T08:53:56;30.40;49.00
73137;DHT22;67767;45.636;11.756;2023-06-26T08:56:24;30.40;48.50
73137;DHT22;67767;45.636;11.756;2023-06-26T08:58:52;30.70;48.60
73137;DHT22;67767;45.636;11.756;2023-06-26T09:01:18;31.10;48.20
73137;DHT22;67767;45.636;11.756;2023-06-26T09:03:44;31.30;48.20
73137;DHT22;67767;45.636;11.756;2023-06-26T09:06:10;31.30;48.10
73137;DHT22;67767;45.636;11.756;2023-06-26T09:08:36;31.30;47.30
73137;DHT22;67767;45.636;11.756;2023-06-26T09:11:02;31.40;47.30
73137;DHT22;67767;45.636;11.756;2023-06-26T09:13:31;31.50;47.00
73137;DHT22;67767;45.636;11.756;2023-06-26T09:15:57;31.30;45.90
73137;DHT22;67767;45.636;11.756;2023-06-26T09:18:23;31.20;46.80
73137;DHT22;67767;45.636;11.756;2023-06-26T09:20:49;31.40;47.20
73137;DHT22;67767;45.636;11.756;2023-06-26T09:23:16;30.90;46.50
73137;DHT22;67767;45.636;11.756;2023-06-26T09:25:41;31.00;47.50
73137;DHT22;67767;45.636;11.756;2023-06-26T09:28:08;31.50;47.10
73137;DHT22;67767;45.636;11.756;2023-06-26T09:30:35;31.70;45.70
73137;DHT22;67767;45.636;11.756;2023-06-26T09:33:18;31.90;45.20
73137;DHT22;67767;45.636;11.756;2023-06-26T09:35:45;32.00;44.70
73137;DHT22;67767;45.636;11.756;2023-06-26T09:38:12;32.10;44.60
73137;DHT22;67767;45.636;11.756;2023-06-26T09:40:38;32.10;45.30
73137;DHT22;67767;45.636;11.756;2023-06-26T09:43:09;32.10;45.10
73137;DHT22;67767;45.636;11.756;2023-06-26T09:45:35;31.70;45.60
73137;DHT22;67767;45.636;11.756;2023-06-26T09:48:04;32.10;45.60
73137;DHT22;67767;45.636;11.756;2023-06-26T09:50:32;31.70;45.20
73137;DHT22;67767;45.636;11.756;2023-06-26T09:53:11;32.10;46.20
73137;DHT22;67767;45.636;11.756;2023-06-26T09:55:40;32.30;44.70
73137;DHT22;67767;45.636;11.756;2023-06-26T09:58:10;32.50;42.50
73137;DHT22;67767;45.636;11.756;2023-06-26T10:00:43;32.60;42.80
73137;DHT22;67767;45.636;11.756;2023-06-26T10:03:12;32.80;43.00
73137;DHT22;67767;45.636;11.756;2023-06-26T10:05:38;32.70;44.30
73137;DHT22;67767;45.636;11.756;2023-06-26T10:08:05;32.60;44.80
73137;DHT22;67767;45.636;11.756;2023-06-26T10:10:36;32.90;44.20
73137;DHT22;67767;45.636;11.756;2023-06-26T10:13:15;32.80;43.10
73137;DHT22;67767;45.636;11.756;2023-06-26T10:15:45;32.20;44.60
73137;DHT22;67767;45.636;11.756;2023-06-26T10:18:12;32.00;46.90
73137;DHT22;67767;45.636;11.756;2023-06-26T10:20:39;32.20;45.80
73137;DHT22;67767;45.636;11.756;2023-06-26T10:23:06;32.10;44.70
73137;DHT22;67767;45.636;11.756;2023-06-26T10:25:34;31.70;45.50
73137;DHT22;67767;45.636;11.756;2023-06-26T10:28:03;32.20;45.10
73137;DHT22;67767;45.636;11.756;2023-06-26T10:30:33;32.00;44.90
73137;DHT22;67767;45.636;11.756;2023-06-26T10:33:00;31.80;44.80
73137;DHT22;67767;45.636;11.756;2023-06-26T10:35:27;32.40;41.80
73137;DHT22;67767;45.636;11.756;2023-06-26T10:38:03;32.00;42.20
73137;DHT22;67767;45.636;11.756;2023-06-26T10:40:41;31.50;42.90
73137;DHT22;67767;45.636;11.756;2023-06-26T10:43:09;32.40;41.70
73137;DHT22;67767;45.636;11.756;2023-06-26T10:45:35;32.70;40.90
73137;DHT22;67767;45.636;11.756;2023-06-26T10:48:02;32.90;40.90
73137;DHT22;67767;45.636;11.756;2023-06-26T10:50:31;33.10;40.70
73137;DHT22;67767;45.636;11.756;2023-06-26T10:56:05;33.00;42.20
73137;DHT22;67767;45.636;11.756;2023-06-26T10:58:41;33.30;42.60
73137;DHT22;67767;45.636;11.756;2023-06-26T11:03:38;33.20;42.50
73137;DHT22;67767;45.636;11.756;2023-06-26T11:06:20;32.80;43.10
73137;DHT22;67767;45.636;11.756;2023-06-26T11:08:51;32.60;43.40
73137;DHT22;67767;45.636;11.756;2023-06-26T11:11:19;32.60;42.40
73137;DHT22;67767;45.636;11.756;2023-06-26T11:13:46;32.30;42.90
73137;DHT22;67767;45.636;11.756;2023-06-26T11:16:13;32.40;41.90
73137;DHT22;67767;45.636;11.756;2023-06-26T11:18:40;32.40;43.00
73137;DHT22;67767;45.636;11.756;2023-06-26T11:21:09;32.60;42.70
73137;DHT22;67767;45.636;11.756;2023-06-26T11:23:37;33.10;42.10
73137;DHT22;67767;45.636;11.756;2023-06-26T11:26:19;33.20;41.70
73137;DHT22;67767;45.636;11.756;2023-06-26T11:28:53;33.40;40.80
73137;DHT22;67767;45.636;11.756;2023-06-26T11:31:31;33.50;40.40
73137;DHT22;67767;45.636;11.756;2023-06-26T11:34:05;33.10;41.40
73137;DHT22;67767;45.636;11.756;2023-06-26T11:36:33;32.90;41.80
73137;DHT22;67767;45.636;11.756;2023-06-26T11:39:03;33.10;42.40
73137;DHT22;67767;45.636;11.756;2023-06-26T11:41:32;33.80;42.20
73137;DHT22;67767;45.636;11.756;2023-06-26T11:44:03;33.90;41.00
73137;DHT22;67767;45.636;11.756;2023-06-26T11:46:30;34.20;40.10
73137;DHT22;67767;45.636;11.756;2023-06-26T11:48:56;33.90;41.70
73137;DHT22;67767;45.636;11.756;2023-06-26T11:51:22;34.30;38.30
73137;DHT22;67767;45.636;11.756;2023-06-26T11:53:48;34.80;37.40
73137;DHT22;67767;45.636;11.756;2023-06-26T11:56:17;35.30;36.30
73137;DHT22;67767;45.636;11.756;2023-06-26T12:01:41;35.60;35.90
73137;DHT22;67767;45.636;11.756;2023-06-26T12:04:08;36.50;34.70
73137;DHT22;67767;45.636;11.756;2023-06-26T12:06:39;36.30;34.80
73137;DHT22;67767;45.636;11.756;2023-06-26T12:09:09;37.00;34.10
73137;DHT22;67767;45.636;11.756;2023-06-26T12:11:38;37.50;33.40
73137;DHT22;67767;45.636;11.756;2023-06-26T12:14:06;36.80;34.20
73137;DHT22;67767;45.636;11.756;2023-06-26T12:16:33;36.60;35.00
73137;DHT22;67767;45.636;11.756;2023-06-26T12:19:05;36.60;36.00
73137;DHT22;67767;45.636;11.756;2023-06-26T12:24:08;36.90;34.40
73137;DHT22;67767;45.636;11.756;2023-06-26T12:26:34;36.90;33.70
73137;DHT22;67767;45.636;11.756;2023-06-26T12:29:07;37.70;31.90
73137;DHT22;67767;45.636;11.756;2023-06-26T12:31:34;38.00;31.80
73137;DHT22;67767;45.636;11.756;2023-06-26T12:34:00;37.90;32.20
73137;DHT22;67767;45.636;11.756;2023-06-26T12:36:26;38.30;31.90
73137;DHT22;67767;45.636;11.756;2023-06-26T12:38:55;38.00;32.60
73137;DHT22;67767;45.636;11.756;2023-06-26T12:41:24;38.30;32.50
73137;DHT22;67767;45.636;11.756;2023-06-26T12:43:55;38.50;32.60
73137;DHT22;67767;45.636;11.756;2023-06-26T12:46:35;39.00;31.00
73137;DHT22;67767;45.636;11.756;2023-06-26T12:49:01;38.60;31.00
73137;DHT22;67767;45.636;11.756;2023-06-26T12:51:28;38.40;30.30
73137;DHT22;67767;45.636;11.756;2023-06-26T12:53:54;38.80;30.10
73137;DHT22;67767;45.636;11.756;2023-06-26T12:56:19;38.90;30.50
73137;DHT22;67767;45.636;11.756;2023-06-26T12:58:45;39.00;29.50
73137;DHT22;67767;45.636;11.756;2023-06-26T13:01:11;39.30;29.90
73137;DHT22;67767;45.636;11.756;2023-06-26T13:03:39;39.40;30.40
73137;DHT22;67767;45.636;11.756;2023-06-26T13:06:05;39.40;30.30
73137;DHT22;67767;45.636;11.756;2023-06-26T13:08:31;39.80;29.70
73137;DHT22;67767;45.636;11.756;2023-06-26T13:10:57;40.50;28.90
73137;DHT22;67767;45.636;11.756;2023-06-26T13:13:22;40.20;29.70
73137;DHT22;67767;45.636;11.756;2023-06-26T13:15:48;40.40;29.60
73137;DHT22;67767;45.636;11.756;2023-06-26T13:18:14;40.30;29.60
73137;DHT22;67767;45.636;11.756;2023-06-26T13:20:39;40.40;28.80
73137;DHT22;67767;45.636;11.756;2023-06-26T13:23:05;40.40;29.20
73137;DHT22;67767;45.636;11.756;2023-06-26T13:25:31;40.80;28.10
73137;DHT22;67767;45.636;11.756;2023-06-26T13:27:56;40.70;27.60
73137;DHT22;67767;45.636;11.756;2023-06-26T13:30:22;39.00;29.70
73137;DHT22;67767;45.636;11.756;2023-06-26T13:32:48;39.90;29.20
73137;DHT22;67767;45.636;11.756;2023-06-26T13:35:13;41.00;27.20
73137;DHT22;67767;45.636;11.756;2023-06-26T13:37:40;41.30;27.20
73137;DHT22;67767;45.636;11.756;2023-06-26T13:40:06;41.30;27.50
73137;DHT22;67767;45.636;11.756;2023-06-26T13:42:32;39.30;28.90
73137;DHT22;67767;45.636;11.756;2023-06-26T13:44:58;40.60;28.40
73137;DHT22;67767;45.636;11.756;2023-06-26T13:47:24;41.40;26.30
73137;DHT22;67767;45.636;11.756;2023-06-26T13:49:50;41.20;26.80
73137;DHT22;67767;45.636;11.756;2023-06-26T13:52:15;41.20;26.10
73137;DHT22;67767;45.636;11.756;2023-06-26T13:54:41;40.10;27.50
73137;DHT22;67767;45.636;11.756;2023-06-26T13:57:07;40.20;28.30
73137;DHT22;67767;45.636;11.756;2023-06-26T13:59:34;41.00;27.50
73137;DHT22;67767;45.636;11.756;2023-06-26T14:01:59;41.50;25.70
73137;DHT22;67767;45.636;11.756;2023-06-26T14:04:26;41.90;26.30
73137;DHT22;67767;45.636;11.756;2023-06-26T14:06:52;41.70;25.10
73137;DHT22;67767;45.636;11.756;2023-06-26T14:09:18;42.20;24.90
73137;DHT22;67767;45.636;11.756;2023-06-26T14:11:44;42.40;24.50
73137;DHT22;67767;45.636;11.756;2023-06-26T14:14:10;41.70;24.90
73137;DHT22;67767;45.636;11.756;2023-06-26T14:16:35;41.70;25.10
73137;DHT22;67767;45.636;11.756;2023-06-26T14:19:01;42.20;24.30
73137;DHT22;67767;45.636;11.756;2023-06-26T14:21:27;41.50;24.80
73137;DHT22;67767;45.636;11.756;2023-06-26T14:23:55;40.70;24.80
73137;DHT22;67767;45.636;11.756;2023-06-26T14:26:20;41.30;24.00
73137;DHT22;67767;45.636;11.756;2023-06-26T14:28:46;41.70;23.70
73137;DHT22;67767;45.636;11.756;2023-06-26T14:31:12;41.50;24.40
73137;DHT22;67767;45.636;11.756;2023-06-26T14:33:39;40.90;24.40
73137;DHT22;67767;45.636;11.756;2023-06-26T14:36:04;41.50;24.90
73137;DHT22;67767;45.636;11.756;2023-06-26T14:38:30;41.80;24.10
73137;DHT22;67767;45.636;11.756;2023-06-26T14:40:56;41.80;23.40
73137;DHT22;67767;45.636;11.756;2023-06-26T14:43:21;0.20;0.20
73137;DHT22;67767;45.636;11.756;2023-06-26T14:45:47;41.30;23.40
73137;DHT22;67767;45.636;11.756;2023-06-26T14:48:13;41.90;23.90
73137;DHT22;67767;45.636;11.756;2023-06-26T14:50:39;0.20;0.20
73137;DHT22;67767;45.636;11.756;2023-06-26T14:53:05;0.20;0.20
73137;DHT22;67767;45.636;11.756;2023-06-26T14:55:31;0.20;0.20
73137;DHT22;67767;45.636;11.756;2023-06-26T14:57:56;42.20;22.50
73137;DHT22;67767;45.636;11.756;2023-06-26T15:00:22;40.40;22.50
73137;DHT22;67767;45.636;11.756;2023-06-26T15:02:48;40.00;23.20
73137;DHT22;67767;45.636;11.756;2023-06-26T15:05:14;40.30;23.20
73137;DHT22;67767;45.636;11.756;2023-06-26T15:07:39;39.70;23.10
73137;DHT22;67767;45.636;11.756;2023-06-26T15:10:06;39.80;23.30
73137;DHT22;67767;45.636;11.756;2023-06-26T15:12:32;39.20;22.70
73137;DHT22;67767;45.636;11.756;2023-06-26T15:14:58;39.00;24.30
73137;DHT22;67767;45.636;11.756;2023-06-26T15:17:23;39.20;26.20
73137;DHT22;67767;45.636;11.756;2023-06-26T15:19:49;39.50;24.20
73137;DHT22;67767;45.636;11.756;2023-06-26T15:22:17;40.20;23.80
73137;DHT22;67767;45.636;11.756;2023-06-26T15:24:43;40.50;22.80
73137;DHT22;67767;45.636;11.756;2023-06-26T15:27:09;40.30;22.30
73137;DHT22;67767;45.636;11.756;2023-06-26T15:29:35;40.40;22.70
73137;DHT22;67767;45.636;11.756;2023-06-26T15:32:00;41.10;21.00